CheckWX is a tool to help pilots better visualize weather data.  It is not intended as a substitute for an official pre-flight weather briefing.

02:52:01 UTC

KBOS METAR
General Edward Lawrence Logan International Airport
Boston, Massachusetts, USA
Current

58 mins ago

KBOS 220154Z 31015G24KT 10SM FEW075 FEW250 17/00 A2995 RMK AO2 PK WND 31030/0121 SLP143 T01670000
Observed
May-22 @ 01:54 UTC
Wind
  • 310° at 15 KTS
  • Gusting to 24 KTS
Visibility
10 SM
Flight Rules
VFR
Cloud Levels
  • Few at 7,500' AGL
  • Few at 25,000' AGL
Temperature
17°C / 63°F
Dewpoint
C / 32°F
Humidity
32%
Altimeter
29.95" Hg
Pressure
1014.22 hPa
Previous

2 hours ago

KBOS 220054Z 31015G20KT 10SM SCT080 SCT250 17/00 A2993 RMK AO2 PK WND 31035/0009 SLP134 T01720000
Observed
May-22 @ 00:54 UTC
Wind
  • 310° at 15 KTS
  • Gusting to 20 KTS
Visibility
10 SM
Flight Rules
VFR
Cloud Levels
  • Scattered at 8,000' AGL
  • Scattered at 25,000' AGL
Temperature
17°C / 63°F
Dewpoint
C / 32°F
Humidity
32%
Altimeter
29.93" Hg
Pressure
1013.52 hPa
Previous

3 hours ago

KBOS 212354Z 31020G30KT 10SM SCT070 SCT250 18/00 A2989 RMK AO2 PK WND 32031/2339 SLP122 T01830000 10222 20183 53028
Observed
May-21 @ 23:54 UTC
Wind
  • 310° at 20 KTS
  • Gusting to 30 KTS
Visibility
10 SM
Flight Rules
VFR
Cloud Levels
  • Scattered at 7,000' AGL
  • Scattered at 25,000' AGL
Temperature
18°C / 64°F
Dewpoint
C / 32°F
Humidity
30%
Altimeter
29.89" Hg
Pressure
1012.22 hPa